createdAt,value
2022-08-28T00:00:15.766Z,95.40
2022-08-28T00:02:42.570Z,96.20
2022-08-28T00:05:12.942Z,96.10
2022-08-28T00:07:42.293Z,95.90
2022-08-28T00:10:11.882Z,96.30
2022-08-28T00:12:41.011Z,96.00
2022-08-28T00:15:10.077Z,96.10
2022-08-28T00:17:42.359Z,96.30
2022-08-28T00:20:10.248Z,96.30
2022-08-28T00:22:40.085Z,96.60
2022-08-28T00:25:08.180Z,96.50
2022-08-28T00:27:53.043Z,96.40
2022-08-28T00:30:22.370Z,96.60
2022-08-28T00:32:49.238Z,96.50
2022-08-28T00:35:18.488Z,96.40
2022-08-28T00:37:50.581Z,96.60
2022-08-28T00:40:20.004Z,96.50
2022-08-28T00:42:55.898Z,97.10
2022-08-28T00:45:23.106Z,97.00
2022-08-28T00:47:50.239Z,97.20
2022-08-28T00:50:22.428Z,97.20
2022-08-28T00:52:50.946Z,97.00
2022-08-28T00:55:22.460Z,97.10
2022-08-28T00:57:59.111Z,97.20
2022-08-28T01:00:34.114Z,97.40
2022-08-28T01:03:03.580Z,97.80
2022-08-28T01:05:30.444Z,97.40
2022-08-28T01:08:00.090Z,97.40
2022-08-28T01:10:31.185Z,97.30
2022-08-28T01:12:58.111Z,97.60
2022-08-28T01:15:28.306Z,97.50
2022-08-28T01:18:12.279Z,97.70
2022-08-28T01:20:47.032Z,97.60
2022-08-28T01:23:22.886Z,97.60
2022-08-28T01:25:49.608Z,97.70
2022-08-28T01:28:16.768Z,97.80
2022-08-28T01:30:47.508Z,98.10
2022-08-28T01:33:19.600Z,98.20
2022-08-28T01:35:54.816Z,98.40
2022-08-28T01:38:23.202Z,98.60
2022-08-28T01:40:54.634Z,98.70
2022-08-28T01:43:26.201Z,98.60
2022-08-28T01:45:56.196Z,98.80
2022-08-28T01:48:24.031Z,98.70
2022-08-28T01:50:50.833Z,98.90
2022-08-28T01:53:19.637Z,99.10
2022-08-28T01:55:56.658Z,99.30
2022-08-28T01:58:26.008Z,99.30
2022-08-28T02:00:55.020Z,99.10
2022-08-28T02:03:24.333Z,99.20
2022-08-28T02:05:51.285Z,99.60
2022-08-28T02:08:18.323Z,99.80
2022-08-28T02:10:49.853Z,99.90
2022-08-28T02:13:16.689Z,99.90
2022-08-28T02:15:49.067Z,99.90
2022-08-28T02:18:15.854Z,99.90
2022-08-28T02:20:43.037Z,99.90
2022-08-28T02:23:10.209Z,99.90
2022-08-28T02:25:37.034Z,99.80
2022-08-28T02:28:06.491Z,99.90
2022-08-28T02:30:36.262Z,99.80
2022-08-28T02:33:03.122Z,99.80
2022-08-28T02:35:31.331Z,99.90
2022-08-28T02:38:01.059Z,99.90
2022-08-28T02:40:28.081Z,99.90
2022-08-28T02:42:54.920Z,99.90
2022-08-28T02:45:21.677Z,99.90
2022-08-28T02:47:51.230Z,99.90
2022-08-28T02:50:18.082Z,99.90
2022-08-28T02:52:44.937Z,99.90
2022-08-28T02:55:12.541Z,99.90
2022-08-28T02:57:39.831Z,99.90
2022-08-28T03:00:11.858Z,99.90
2022-08-28T03:02:41.672Z,99.90
2022-08-28T03:05:09.144Z,99.90
2022-08-28T03:07:35.896Z,99.90
2022-08-28T03:10:02.940Z,99.90
2022-08-28T03:12:29.675Z,99.90
2022-08-28T03:14:58.939Z,99.90
2022-08-28T03:17:25.783Z,99.90
2022-08-28T03:19:57.327Z,99.90
2022-08-28T03:22:55.484Z,99.90
2022-08-28T03:25:24.813Z,99.90
2022-08-28T03:27:53.814Z,99.90
2022-08-28T03:30:20.874Z,99.90
2022-08-28T03:32:50.207Z,99.90
2022-08-28T03:35:17.283Z,99.90
2022-08-28T03:37:46.632Z,99.90
2022-08-28T03:40:16.167Z,99.90
2022-08-28T03:42:52.981Z,99.90
2022-08-28T03:45:20.431Z,99.90
2022-08-28T03:47:47.251Z,99.90
2022-08-28T03:50:14.856Z,99.90
2022-08-28T03:52:46.443Z,99.90
2022-08-28T03:55:16.021Z,99.90
2022-08-28T03:57:45.842Z,99.90
2022-08-28T04:00:20.498Z,99.90
2022-08-28T04:02:47.310Z,99.90
2022-08-28T04:05:14.095Z,99.90
2022-08-28T04:07:40.872Z,99.90
2022-08-28T04:10:10.666Z,99.90
2022-08-28T04:12:37.680Z,99.90
2022-08-28T04:15:06.841Z,99.90
2022-08-28T04:17:39.132Z,99.90
2022-08-28T04:20:06.330Z,99.90
2022-08-28T04:22:33.120Z,99.90
2022-08-28T04:25:00.573Z,99.90
2022-08-28T04:27:27.377Z,99.90
2022-08-28T04:29:56.697Z,99.90
2022-08-28T04:32:23.735Z,99.90
2022-08-28T04:34:50.744Z,99.90
2022-08-28T04:37:20.025Z,99.90
2022-08-28T04:39:49.608Z,99.90
2022-08-28T04:42:16.338Z,99.90
2022-08-28T04:44:43.086Z,99.90
2022-08-28T04:47:09.811Z,99.90
2022-08-28T04:49:36.574Z,99.90
2022-08-28T04:52:08.038Z,99.90
2022-08-28T04:54:40.012Z,99.90
2022-08-28T04:57:09.215Z,99.90
2022-08-28T04:59:36.256Z,99.90
2022-08-28T05:02:05.738Z,99.90
2022-08-28T05:04:32.516Z,99.90
2022-08-28T05:06:59.256Z,99.90
2022-08-28T05:09:28.530Z,99.90
2022-08-28T05:11:55.290Z,99.90
2022-08-28T05:14:24.431Z,99.90
2022-08-28T05:16:57.730Z,99.90
2022-08-28T05:19:25.950Z,99.90
2022-08-28T05:21:53.074Z,99.90
2022-08-28T05:24:19.920Z,99.90
2022-08-28T05:26:47.982Z,99.90
2022-08-28T05:29:17.733Z,99.90
2022-08-28T05:31:47.441Z,99.90
2022-08-28T05:34:15.237Z,99.90
2022-08-28T05:36:41.981Z,99.90
2022-08-28T05:39:10.185Z,99.90
2022-08-28T05:41:37.339Z,99.90
2022-08-28T05:44:06.123Z,99.90
2022-08-28T05:46:39.748Z,99.90
2022-08-28T05:49:10.318Z,99.90
2022-08-28T05:51:40.202Z,99.90
2022-08-28T05:54:09.436Z,99.90
2022-08-28T05:56:40.521Z,99.90
2022-08-28T05:59:09.683Z,99.90
2022-08-28T06:01:55.376Z,99.90
2022-08-28T06:04:27.816Z,99.90
2022-08-28T06:06:54.727Z,99.90
2022-08-28T06:09:29.037Z,99.90
2022-08-28T06:11:59.874Z,99.90
2022-08-28T06:14:26.743Z,99.90
2022-08-28T06:16:54.792Z,99.90
2022-08-28T06:19:23.061Z,99.90
2022-08-28T06:21:52.495Z,99.90
2022-08-28T06:24:21.709Z,99.90
2022-08-28T06:26:48.515Z,99.90
2022-08-28T06:29:21.070Z,99.90
2022-08-28T06:31:57.032Z,99.90
2022-08-28T06:34:23.879Z,99.90
2022-08-28T06:36:53.997Z,99.90
2022-08-28T06:39:21.135Z,99.90
2022-08-28T06:41:53.747Z,99.90
2022-08-28T06:44:20.937Z,99.90
2022-08-28T06:46:48.782Z,99.90
2022-08-28T06:49:17.693Z,99.90
2022-08-28T06:51:49.341Z,99.90
2022-08-28T06:54:22.193Z,99.90
2022-08-28T06:56:49.576Z,99.90
2022-08-28T06:59:18.468Z,99.90
2022-08-28T07:01:47.730Z,99.90
2022-08-28T07:04:16.893Z,99.90
2022-08-28T07:06:47.048Z,99.90
2022-08-28T07:09:17.369Z,99.90
2022-08-28T07:11:46.681Z,99.90
2022-08-28T07:14:15.688Z,99.90
2022-08-28T07:16:42.554Z,99.90
2022-08-28T07:19:11.291Z,99.90
2022-08-28T07:21:42.272Z,99.90
2022-08-28T07:24:10.498Z,99.90
2022-08-28T07:26:37.508Z,99.90
2022-08-28T07:29:10.436Z,99.90
2022-08-28T07:31:42.477Z,99.90
2022-08-28T07:34:10.365Z,99.90
2022-08-28T07:36:39.442Z,99.90
2022-08-28T07:39:08.789Z,99.90
2022-08-28T07:41:40.213Z,99.90
2022-08-28T07:44:25.945Z,99.90
2022-08-28T07:46:56.819Z,99.90
2022-08-28T07:49:23.978Z,99.90
2022-08-28T07:51:53.931Z,99.90
2022-08-28T07:54:23.364Z,99.90
2022-08-28T07:56:50.496Z,99.90
2022-08-28T07:59:19.187Z,99.90
2022-08-28T08:01:50.697Z,99.90
2022-08-28T08:04:18.065Z,99.90
2022-08-28T08:06:47.617Z,99.90
2022-08-28T08:09:18.128Z,99.90
2022-08-28T08:11:47.429Z,99.90
2022-08-28T08:14:16.490Z,99.90
2022-08-28T08:16:44.502Z,99.90
2022-08-28T08:19:14.180Z,99.90
2022-08-28T08:21:45.580Z,99.90
2022-08-28T08:24:19.691Z,99.90
2022-08-28T08:26:58.840Z,99.90
2022-08-28T08:29:33.546Z,99.90
2022-08-28T08:32:07.219Z,99.90
2022-08-28T08:34:39.739Z,99.90
2022-08-28T08:37:06.701Z,99.90
2022-08-28T08:39:36.391Z,99.90
2022-08-28T08:42:04.272Z,99.90
2022-08-28T08:44:36.764Z,99.90
2022-08-28T08:47:09.556Z,99.90
2022-08-28T08:49:40.379Z,99.90
2022-08-28T08:52:15.534Z,99.90
2022-08-28T08:54:49.029Z,99.90
2022-08-28T08:57:18.590Z,99.90
2022-08-28T08:59:47.551Z,99.90
2022-08-28T09:02:21.307Z,99.90
2022-08-28T09:04:52.781Z,99.90
2022-08-28T09:07:27.945Z,99.90
2022-08-28T09:09:55.813Z,99.90
2022-08-28T09:12:23.170Z,99.90
2022-08-28T09:15:05.740Z,99.90
2022-08-28T09:17:46.437Z,99.90
2022-08-28T09:20:17.850Z,99.90
2022-08-28T09:22:53.101Z,99.90
2022-08-28T09:25:44.823Z,99.90
2022-08-28T09:28:18.520Z,99.90
2022-08-28T09:30:52.073Z,99.90
2022-08-28T09:33:46.150Z,99.90
2022-08-28T09:36:28.419Z,99.90
2022-08-28T09:39:05.342Z,99.90
2022-08-28T09:41:50.572Z,99.90
2022-08-28T09:44:17.428Z,99.90
2022-08-28T09:46:49.752Z,99.90
2022-08-28T09:49:19.359Z,99.90
2022-08-28T09:51:46.152Z,99.90
2022-08-28T09:54:19.721Z,99.90
2022-08-28T09:56:48.825Z,99.90
2022-08-28T09:59:16.549Z,99.90
2022-08-28T10:01:46.619Z,99.90
2022-08-28T10:04:38.174Z,99.90
2022-08-28T10:07:09.719Z,99.90
2022-08-28T10:10:14.294Z,99.90
2022-08-28T10:13:01.454Z,99.90
2022-08-28T10:15:47.010Z,99.90
2022-08-28T10:18:28.571Z,99.90
2022-08-28T10:21:18.900Z,99.90
2022-08-28T10:23:58.889Z,99.90
2022-08-28T10:26:40.454Z,99.90
2022-08-28T10:29:40.573Z,99.90
2022-08-28T10:32:34.267Z,99.90
2022-08-28T10:35:39.962Z,99.90
2022-08-28T10:38:24.068Z,99.90
2022-08-28T10:41:00.008Z,99.90
2022-08-28T10:43:55.901Z,99.90
2022-08-28T10:46:31.368Z,99.90
2022-08-28T10:49:11.831Z,99.90
2022-08-28T10:51:45.711Z,99.90
2022-08-28T10:54:36.618Z,99.90
2022-08-28T10:57:08.907Z,99.90
2022-08-28T10:59:42.319Z,99.90
2022-08-28T11:02:09.401Z,99.90
2022-08-28T11:04:36.260Z,99.50
2022-08-28T11:07:10.162Z,99.80
2022-08-28T11:09:38.969Z,99.70
2022-08-28T11:12:10.286Z,99.10
2022-08-28T11:14:48.575Z,97.90
2022-08-28T11:17:25.397Z,97.10
2022-08-28T11:20:15.376Z,97.80
2022-08-28T11:22:47.276Z,97.30
2022-08-28T11:25:35.474Z,95.10
2022-08-28T11:28:37.119Z,95.00
2022-08-28T11:31:03.865Z,96.20
2022-08-28T11:33:39.253Z,95.80
2022-08-28T11:36:21.597Z,96.10
2022-08-28T11:38:51.505Z,95.70
2022-08-28T11:41:31.368Z,95.50
2022-08-28T11:44:04.345Z,95.30
2022-08-28T11:46:35.517Z,95.60
2022-08-28T11:49:31.499Z,96.10
2022-08-28T11:52:23.138Z,96.40
2022-08-28T11:54:49.835Z,95.80
2022-08-28T11:57:28.813Z,95.70
2022-08-28T12:00:27.047Z,93.90
2022-08-28T12:03:15.022Z,92.90
2022-08-28T12:05:47.051Z,92.70
2022-08-28T12:08:34.694Z,94.00
2022-08-28T12:11:01.572Z,93.70
2022-08-28T12:13:51.110Z,93.70
2022-08-28T12:16:18.010Z,93.20
2022-08-28T12:18:47.852Z,93.90
2022-08-28T12:21:21.905Z,93.80
2022-08-28T12:24:09.094Z,92.50
2022-08-28T12:26:42.021Z,93.40
2022-08-28T12:29:08.780Z,92.80
2022-08-28T12:32:11.219Z,93.00
2022-08-28T12:34:42.453Z,93.00
2022-08-28T12:37:29.511Z,92.70
2022-08-28T12:40:08.039Z,92.70
2022-08-28T12:42:38.862Z,92.90
2022-08-28T12:45:07.914Z,93.00
2022-08-28T12:47:35.749Z,92.80
2022-08-28T12:50:21.562Z,93.10
2022-08-28T12:52:51.822Z,93.50
2022-08-28T12:55:23.760Z,93.40
2022-08-28T12:57:56.356Z,94.10
2022-08-28T13:00:26.109Z,93.70
2022-08-28T13:02:56.093Z,93.70
2022-08-28T13:05:30.342Z,93.60
2022-08-28T13:07:57.660Z,92.90
2022-08-28T13:10:36.830Z,93.50
2022-08-28T13:13:18.479Z,93.00
2022-08-28T13:15:48.371Z,93.10
2022-08-28T13:18:51.461Z,92.50
2022-08-28T13:21:25.539Z,92.90
2022-08-28T13:24:01.250Z,92.50
2022-08-28T13:26:35.450Z,93.40
2022-08-28T13:29:05.418Z,94.40
2022-08-28T13:31:35.000Z,94.80
2022-08-28T13:34:10.741Z,95.00
2022-08-28T13:36:44.974Z,95.30
2022-08-28T13:39:13.150Z,95.50
2022-08-28T13:41:44.562Z,95.20
2022-08-28T13:44:26.808Z,95.20
2022-08-28T13:46:53.767Z,94.50
2022-08-28T13:49:21.349Z,94.90
2022-08-28T13:51:50.790Z,94.90
2022-08-28T13:54:20.544Z,95.30
2022-08-28T13:56:50.770Z,95.50
2022-08-28T13:59:20.211Z,95.10
2022-08-28T14:02:06.008Z,95.00
2022-08-28T14:04:36.285Z,95.10
2022-08-28T14:07:03.030Z,94.40
2022-08-28T14:09:33.649Z,94.80
2022-08-28T14:12:00.412Z,95.10
2022-08-28T14:14:27.143Z,94.10
2022-08-28T14:16:56.885Z,93.50
2022-08-28T14:19:26.160Z,92.80
2022-08-28T14:21:57.744Z,93.70
2022-08-28T14:24:27.995Z,94.20
2022-08-28T14:26:55.480Z,93.50
2022-08-28T14:29:24.953Z,93.40
2022-08-28T14:31:51.866Z,93.50
2022-08-28T14:34:20.919Z,92.30
2022-08-28T14:36:55.052Z,91.70
2022-08-28T14:39:25.649Z,93.20
2022-08-28T14:41:54.908Z,91.90
2022-08-28T14:44:22.533Z,92.70
2022-08-28T14:46:59.106Z,93.60
2022-08-28T14:49:30.578Z,93.50
2022-08-28T14:51:57.576Z,93.80
2022-08-28T14:54:25.393Z,93.40
2022-08-28T14:56:52.577Z,93.90
2022-08-28T14:59:24.520Z,94.30
2022-08-28T15:01:52.463Z,95.30
2022-08-28T15:04:22.705Z,95.50
2022-08-28T15:06:58.240Z,95.30
2022-08-28T15:09:25.187Z,95.80
2022-08-28T15:11:51.936Z,95.90
2022-08-28T15:14:20.848Z,96.00
2022-08-28T15:16:48.057Z,96.20
2022-08-28T15:19:17.785Z,96.20
2022-08-28T15:21:47.686Z,96.20
2022-08-28T15:24:15.633Z,96.40
2022-08-28T15:26:42.455Z,96.50
2022-08-28T15:29:12.090Z,96.70
2022-08-28T15:31:43.127Z,97.20
2022-08-28T15:34:18.245Z,97.10
2022-08-28T15:36:45.507Z,96.90
2022-08-28T15:39:40.369Z,96.80
2022-08-28T15:42:07.557Z,96.70
2022-08-28T15:44:34.301Z,97.00
2022-08-28T15:47:02.185Z,97.10
2022-08-28T15:49:36.274Z,96.80
2022-08-28T15:52:12.497Z,97.10
2022-08-28T15:54:41.723Z,96.90
2022-08-28T15:57:08.694Z,96.80
2022-08-28T15:59:49.161Z,96.70
2022-08-28T16:02:22.813Z,97.00
2022-08-28T16:04:49.707Z,97.00
2022-08-28T16:07:16.938Z,97.10
2022-08-28T16:09:46.237Z,97.30
2022-08-28T16:12:13.056Z,97.50
2022-08-28T16:14:42.293Z,97.80
2022-08-28T16:17:11.192Z,97.80
2022-08-28T16:19:39.847Z,98.00
2022-08-28T16:22:09.465Z,98.00
2022-08-28T16:24:36.881Z,98.10
2022-08-28T16:27:03.710Z,98.00
2022-08-28T16:29:33.239Z,97.90
2022-08-28T16:32:03.301Z,98.20
2022-08-28T16:34:32.477Z,98.30
2022-08-28T16:37:01.944Z,98.30
2022-08-28T16:39:30.820Z,98.40
2022-08-28T16:42:02.253Z,99.00
2022-08-28T16:44:29.149Z,98.60
2022-08-28T16:46:56.021Z,98.90
2022-08-28T16:49:23.676Z,99.10
2022-08-28T16:51:50.552Z,99.20
2022-08-28T16:54:21.553Z,99.60
2022-08-28T16:56:50.858Z,99.90
2022-08-28T16:59:24.096Z,99.90
2022-08-28T17:01:53.898Z,99.90
2022-08-28T17:04:21.754Z,99.90
2022-08-28T17:06:48.608Z,99.90
2022-08-28T17:09:21.152Z,99.90
2022-08-28T17:11:52.521Z,99.90
2022-08-28T17:14:22.939Z,99.90
2022-08-28T17:16:49.925Z,99.90
2022-08-28T17:19:16.840Z,99.90
2022-08-28T17:22:02.130Z,99.90
2022-08-28T17:24:29.016Z,99.90
2022-08-28T17:26:55.751Z,99.90
2022-08-28T17:29:25.466Z,99.90
2022-08-28T17:31:52.204Z,99.90
2022-08-28T17:34:21.298Z,99.90
2022-08-28T17:36:53.118Z,99.90
2022-08-28T17:39:20.071Z,99.90
2022-08-28T17:41:48.988Z,99.90
2022-08-28T17:44:15.728Z,99.90
2022-08-28T17:46:42.749Z,99.90
2022-08-28T17:49:09.973Z,99.90
2022-08-28T17:51:43.651Z,99.90
2022-08-28T17:54:18.292Z,99.90
2022-08-28T17:56:47.414Z,99.90
2022-08-28T17:59:14.271Z,99.90
2022-08-28T18:01:41.889Z,99.90
2022-08-28T18:04:09.071Z,99.90
2022-08-28T18:06:35.981Z,99.90
2022-08-28T18:09:03.438Z,99.90
2022-08-28T18:11:30.243Z,99.90
2022-08-28T18:13:57.261Z,99.90
2022-08-28T18:16:31.159Z,99.90
2022-08-28T18:18:59.427Z,99.90
2022-08-28T18:21:28.290Z,99.90
2022-08-28T18:23:57.545Z,99.90
2022-08-28T18:26:26.767Z,99.90
2022-08-28T18:28:53.586Z,99.90
2022-08-28T18:31:20.414Z,99.90
2022-08-28T18:33:52.161Z,99.90
2022-08-28T18:36:23.231Z,99.90
2022-08-28T18:38:52.367Z,99.90
2022-08-28T18:41:20.156Z,99.90
2022-08-28T18:43:47.288Z,99.90
2022-08-28T18:46:16.566Z,99.90
2022-08-28T18:48:43.329Z,99.90
2022-08-28T18:51:13.236Z,99.90
2022-08-28T18:53:43.168Z,99.90
2022-08-28T18:56:10.369Z,99.90
2022-08-28T18:58:39.530Z,99.90
2022-08-28T19:01:09.367Z,99.90
2022-08-28T19:03:38.548Z,99.90
2022-08-28T19:06:06.383Z,99.90
2022-08-28T19:08:33.284Z,99.90
2022-08-28T19:11:00.024Z,99.90
2022-08-28T19:13:27.899Z,99.90
2022-08-28T19:15:54.725Z,99.90
2022-08-28T19:18:21.665Z,99.90
2022-08-28T19:20:48.719Z,99.90
2022-08-28T19:23:17.919Z,99.90
2022-08-28T19:25:44.892Z,99.90
2022-08-28T19:28:11.633Z,99.90
2022-08-28T19:30:38.402Z,99.90
2022-08-28T19:33:05.786Z,99.90
2022-08-28T19:35:33.855Z,99.90
2022-08-28T19:38:00.935Z,99.90
2022-08-28T19:40:27.783Z,99.90
2022-08-28T19:42:54.730Z,99.90
2022-08-28T19:45:25.850Z,99.90
2022-08-28T19:47:52.691Z,99.90
2022-08-28T19:50:22.041Z,99.90
2022-08-28T19:52:48.895Z,99.90
2022-08-28T19:55:19.923Z,99.90
2022-08-28T19:57:49.899Z,99.90
2022-08-28T20:00:23.668Z,99.90
2022-08-28T20:02:52.377Z,99.90
2022-08-28T20:05:19.999Z,99.90
2022-08-28T20:07:48.982Z,99.90
2022-08-28T20:10:16.117Z,99.90
2022-08-28T20:12:48.377Z,99.90
2022-08-28T20:15:16.865Z,99.90
2022-08-28T20:17:44.082Z,99.90
2022-08-28T20:20:25.663Z,99.90
2022-08-28T20:22:56.113Z,99.90
2022-08-28T20:25:23.647Z,99.90
2022-08-28T20:27:52.847Z,99.90
2022-08-28T20:30:21.897Z,99.90
2022-08-28T20:32:48.974Z,99.90
2022-08-28T20:35:15.945Z,99.90
2022-08-28T20:37:45.278Z,99.90
2022-08-28T20:40:17.158Z,99.90
2022-08-28T20:42:44.193Z,99.90
2022-08-28T20:45:14.138Z,99.90
2022-08-28T20:47:43.151Z,99.90
2022-08-28T20:50:10.195Z,99.90
2022-08-28T20:52:37.270Z,99.90
2022-08-28T20:55:07.715Z,99.90
2022-08-28T20:57:34.495Z,99.90
2022-08-28T21:00:05.684Z,99.90
2022-08-28T21:02:34.813Z,99.90
2022-08-28T21:05:01.720Z,99.90
2022-08-28T21:07:28.569Z,99.90
2022-08-28T21:10:05.761Z,99.90
2022-08-28T21:12:35.237Z,99.90
2022-08-28T21:15:02.432Z,99.90
2022-08-28T21:17:31.357Z,99.90
2022-08-28T21:20:04.372Z,99.90
2022-08-28T21:22:31.784Z,99.90
2022-08-28T21:25:02.343Z,99.90
2022-08-28T21:27:29.193Z,99.90
2022-08-28T21:29:57.586Z,99.90
2022-08-28T21:32:29.146Z,99.90
2022-08-28T21:34:58.505Z,99.90
2022-08-28T21:37:27.395Z,99.90
2022-08-28T21:39:56.308Z,99.90
2022-08-28T21:42:25.628Z,99.90
2022-08-28T21:44:54.891Z,99.90
2022-08-28T21:47:24.399Z,99.90
2022-08-28T21:49:52.395Z,99.90
2022-08-28T21:52:19.572Z,99.90
2022-08-28T21:54:46.406Z,99.90
2022-08-28T21:57:13.143Z,99.90
2022-08-28T21:59:43.388Z,99.90
2022-08-28T22:02:10.188Z,99.90
2022-08-28T22:04:36.977Z,99.90
2022-08-28T22:07:03.727Z,99.90
2022-08-28T22:09:30.484Z,99.90
2022-08-28T22:11:57.238Z,99.90
2022-08-28T22:14:25.181Z,99.90
2022-08-28T22:16:52.090Z,99.90
2022-08-28T22:19:18.952Z,99.90
2022-08-28T22:22:04.298Z,99.90
2022-08-28T22:24:34.203Z,99.90
2022-08-28T22:27:00.975Z,99.90
2022-08-28T22:29:28.751Z,99.90
2022-08-28T22:31:55.540Z,99.90
2022-08-28T22:34:22.322Z,99.90
2022-08-28T22:36:49.040Z,99.90
2022-08-28T22:39:15.780Z,99.90
2022-08-28T22:41:43.314Z,99.90
2022-08-28T22:44:10.148Z,99.90
2022-08-28T22:46:36.883Z,99.90
2022-08-28T22:49:04.116Z,99.90
2022-08-28T22:51:33.857Z,99.90
2022-08-28T22:54:03.251Z,99.90
2022-08-28T22:56:36.192Z,99.90
2022-08-28T22:59:02.970Z,99.90
2022-08-28T23:01:29.788Z,99.90
2022-08-28T23:03:57.767Z,99.90
2022-08-28T23:06:24.570Z,99.90
2022-08-28T23:08:56.334Z,99.90
2022-08-28T23:11:25.245Z,99.90
2022-08-28T23:13:51.986Z,99.90
2022-08-28T23:16:24.031Z,99.90
2022-08-28T23:19:07.276Z,99.90
2022-08-28T23:21:35.463Z,99.90
2022-08-28T23:24:09.145Z,99.90
2022-08-28T23:26:35.978Z,99.90
2022-08-28T23:29:05.298Z,99.90
2022-08-28T23:31:41.722Z,99.90
2022-08-28T23:34:08.693Z,99.90
2022-08-28T23:36:42.939Z,99.90
2022-08-28T23:39:10.218Z,99.90
2022-08-28T23:41:36.968Z,99.90
2022-08-28T23:44:08.331Z,99.90
2022-08-28T23:46:41.148Z,99.90
2022-08-28T23:49:10.661Z,99.90
2022-08-28T23:51:37.733Z,99.90
2022-08-28T23:54:04.666Z,99.90
2022-08-28T23:56:32.898Z,99.90
2022-08-28T23:59:01.804Z,99.90
